Time;durP1;ratioP1;P1;durP2;ratioP2;P2;SDS_P1;SDS_P2;PMS_P1;PMS_P2;Temp;Humidity;BMP_temperature;BMP_pressure;BME280_temperature;BME280_humidity;BME280_pressure;Samples;Min_cycle;Max_cycle;Signal;HPM_P1;HPM_P2
2022/01/05 00:00:54;;;;;;;12.13;2.10;;;3.00;99.90;;;;;;4967530;28;20035;-70
2022/01/05 00:03:20;;;;;;;7.13;1.30;;;2.90;99.90;;;;;;4968688;28;20030;-70
2022/01/05 00:05:46;;;;;;;8.50;1.67;;;;;;;;;;4966801;28;20464;-69
2022/01/05 00:08:14;;;;;;;6.80;1.30;;;3.10;99.90;;;;;;4966738;28;20186;-70
2022/01/05 00:10:39;;;;;;;9.07;2.03;;;2.90;99.90;;;;;;4967842;28;20037;-70
2022/01/05 00:13:05;;;;;;;9.73;1.97;;;;;;;;;;4964020;28;20122;-70
2022/01/05 00:15:31;;;;;;;13.73;2.53;;;;;;;;;;4958565;28;20031;-70
2022/01/05 00:17:57;;;;;;;8.47;1.57;;;;;;;;;;4961258;28;20101;-70
2022/01/05 00:20:24;;;;;;;6.27;1.63;;;2.90;99.90;;;;;;4969984;28;20439;-70
2022/01/05 00:22:50;;;;;;;8.73;1.40;;;2.80;99.90;;;;;;4971685;28;20030;-70
2022/01/05 00:25:15;;;;;;;7.80;1.70;;;2.70;99.90;;;;;;4972220;28;20097;-70
2022/01/05 00:27:41;;;;;;;14.17;2.63;;;2.80;99.90;;;;;;4971754;28;20464;-70
2022/01/05 00:30:07;;;;;;;5.90;1.77;;;2.70;99.90;;;;;;4971246;28;20051;-70
2022/01/05 00:32:33;;;;;;;6.23;1.30;;;2.70;99.90;;;;;;4970950;28;20114;-70
2022/01/05 00:34:58;;;;;;;7.57;1.40;;;2.80;99.90;;;;;;4970574;28;20415;-70
2022/01/05 00:37:24;;;;;;;6.00;1.27;;;;;;;;;;4971744;28;20031;-70
2022/01/05 00:39:50;;;;;;;13.90;1.97;;;2.50;99.90;;;;;;4970970;28;20026;-70
2022/01/05 00:42:16;;;;;;;7.93;1.50;;;;;;;;;;4971845;28;20043;-70
2022/01/05 00:44:41;;;;;;;8.63;1.73;;;2.60;99.90;;;;;;4971267;28;20023;-70
2022/01/05 00:47:07;;;;;;;12.73;1.73;;;2.60;99.90;;;;;;4969804;28;20212;-70
2022/01/05 00:49:33;;;;;;;10.80;1.70;;;2.40;99.90;;;;;;4970368;28;20027;-70
2022/01/05 00:51:58;;;;;;;10.87;1.50;;;2.60;99.90;;;;;;4970558;28;20033;-69
2022/01/05 00:54:24;;;;;;;9.17;1.60;;;;;;;;;;4971144;28;20110;-70
2022/01/05 00:56:50;;;;;;;8.43;2.00;;;2.80;99.90;;;;;;4970949;28;20113;-70
2022/01/05 00:59:15;;;;;;;6.27;1.30;;;;;;;;;;4971110;28;20105;-70
2022/01/05 01:01:41;;;;;;;6.20;1.00;;;2.60;99.90;;;;;;4969012;28;20066;-70
2022/01/05 01:04:07;;;;;;;10.83;1.77;;;2.80;99.90;;;;;;4970101;28;20039;-69
2022/01/05 01:06:34;;;;;;;17.13;1.83;;;2.70;99.90;;;;;;4970913;28;20093;-71
2022/01/05 01:09:00;;;;;;;10.77;1.60;;;2.80;99.90;;;;;;4970670;28;20106;-70
2022/01/05 01:11:26;;;;;;;6.07;1.87;;;2.70;99.90;;;;;;4970651;28;20117;-70
2022/01/05 01:13:52;;;;;;;8.50;1.27;;;2.60;99.90;;;;;;4970773;28;20034;-70
2022/01/05 01:16:20;;;;;;;5.90;1.20;;;2.60;99.90;;;;;;4970925;28;20069;-70
2022/01/05 01:18:46;;;;;;;7.27;1.90;;;2.60;99.90;;;;;;4968770;28;20045;-70
2022/01/05 01:21:12;;;;;;;5.77;1.87;;;2.60;99.90;;;;;;4970257;28;20397;-70
2022/01/05 01:23:38;;;;;;;11.67;1.63;;;;;;;;;;4970665;28;20392;-70
2022/01/05 01:26:03;;;;;;;11.23;2.03;;;2.60;99.90;;;;;;4968823;28;20051;-70
2022/01/05 01:28:29;;;;;;;8.07;2.17;;;;;;;;;;4969841;28;20081;-70
2022/01/05 01:30:55;;;;;;;13.57;1.73;;;2.60;99.90;;;;;;4969205;28;20042;-69
2022/01/05 01:33:21;;;;;;;10.07;1.80;;;;;;;;;;4968365;28;20083;-69
2022/01/05 01:35:47;;;;;;;14.93;2.60;;;2.50;99.90;;;;;;4970432;28;20049;-70
2022/01/05 01:38:13;;;;;;;10.67;2.00;;;;;;;;;;4970089;28;20038;-70
2022/01/05 01:40:39;;;;;;;12.47;2.43;;;2.70;99.90;;;;;;4970376;28;20031;-70
2022/01/05 01:43:05;;;;;;;10.93;2.10;;;;;;;;;;4970302;28;20029;-70
2022/01/05 01:45:31;;;;;;;9.37;2.27;;;3.00;99.90;;;;;;4969845;28;20041;-70
2022/01/05 01:47:57;;;;;;;10.47;1.50;;;;;;;;;;4969887;28;20030;-69
2022/01/05 01:50:23;;;;;;;8.63;1.70;;;;;;;;;;4967854;28;20043;-71
2022/01/05 01:52:48;;;;;;;9.00;1.50;;;2.90;99.90;;;;;;4968629;28;20026;-70
2022/01/05 01:55:14;;;;;;;7.87;1.30;;;2.50;99.90;;;;;;4969746;28;20046;-70
2022/01/05 01:57:42;;;;;;;7.73;1.27;;;2.60;99.90;;;;;;4969912;28;20019;-70
2022/01/05 02:00:09;;;;;;;9.33;2.20;;;2.50;99.90;;;;;;4969772;28;20142;-70
2022/01/05 02:02:36;;;;;;;9.80;1.43;;;2.50;99.90;;;;;;4968730;28;20031;-71
2022/01/05 02:05:03;;;;;;;5.13;1.70;;;2.40;99.90;;;;;;4970145;28;20023;-70
2022/01/05 02:07:29;;;;;;;10.57;1.67;;;2.40;99.90;;;;;;4969199;28;20107;-70
2022/01/05 02:09:55;;;;;;;6.40;2.20;;;2.40;99.90;;;;;;4970027;28;20165;-70
2022/01/05 02:12:26;;;;;;;11.03;2.37;;;;;;;;;;4969350;28;20027;-70
2022/01/05 02:14:52;;;;;;;12.57;2.53;;;;;;;;;;4969871;28;20057;-70
2022/01/05 02:17:22;;;;;;;21.23;2.73;;;;;;;;;;4967302;28;20054;-70
2022/01/05 02:19:48;;;;;;;12.23;2.43;;;2.30;99.90;;;;;;4969894;28;20027;-70
2022/01/05 02:22:14;;;;;;;21.63;3.30;;;;;;;;;;4969894;28;20045;-70
2022/01/05 02:24:40;;;;;;;8.93;2.10;;;2.60;99.90;;;;;;4968975;28;20038;-70
2022/01/05 02:27:06;;;;;;;19.07;2.10;;;2.60;99.90;;;;;;4969692;28;20022;-70
2022/01/05 02:29:32;;;;;;;6.77;1.67;;;;;;;;;;4968169;28;20023;-70
2022/01/05 02:32:00;;;;;;;8.73;2.10;;;2.50;99.90;;;;;;4969016;28;20063;-70
2022/01/05 02:34:26;;;;;;;19.53;2.40;;;2.40;99.90;;;;;;4968314;28;20022;-70
2022/01/05 02:36:51;;;;;;;8.87;1.50;;;;;;;;;;4980142;28;20081;-70
2022/01/05 02:39:17;;;;;;;11.33;2.43;;;2.60;99.90;;;;;;4965212;28;20069;-70
2022/01/05 02:41:43;;;;;;;16.37;2.07;;;;;;;;;;4967978;28;20054;-70
2022/01/05 02:44:09;;;;;;;17.13;2.07;;;2.20;99.90;;;;;;4968923;28;20026;-70
2022/01/05 02:46:34;;;;;;;10.90;2.27;;;;;;;;;;4968580;28;20038;-70
2022/01/05 02:49:02;;;;;;;9.23;2.43;;;;;;;;;;4969104;28;20436;-70
2022/01/05 02:51:28;;;;;;;11.10;2.00;;;2.50;99.90;;;;;;4968410;28;20069;-70
2022/01/05 02:53:54;;;;;;;7.60;1.93;;;2.70;99.90;;;;;;4969338;28;20047;-70
2022/01/05 02:56:19;;;;;;;10.17;2.10;;;2.50;99.90;;;;;;4983839;28;20054;-70
2022/01/05 02:58:45;;;;;;;9.07;1.93;;;2.60;99.90;;;;;;4967563;28;20477;-70
2022/01/05 03:01:11;;;;;;;8.90;2.13;;;;;;;;;;4968626;28;20413;-70
2022/01/05 03:03:37;;;;;;;14.27;2.67;;;;;;;;;;4968080;28;20038;-71
2022/01/05 03:06:03;;;;;;;12.97;2.30;;;;;;;;;;4969044;28;20031;-71
2022/01/05 03:08:29;;;;;;;8.60;1.73;;;2.20;99.90;;;;;;4968032;28;20046;-70
2022/01/05 03:10:55;;;;;;;13.27;1.80;;;;;;;;;;4968595;28;20101;-70
2022/01/05 03:13:23;;;;;;;15.33;1.87;;;;;;;;;;4968202;28;20038;-70
2022/01/05 03:15:49;;;;;;;13.23;1.37;;;2.50;99.90;;;;;;4968526;28;20113;-70
2022/01/05 03:18:15;;;;;;;11.40;2.00;;;2.50;99.90;;;;;;4968228;28;20050;-70
2022/01/05 03:20:40;;;;;;;11.20;1.93;;;2.50;99.90;;;;;;4967632;28;20492;-70
2022/01/05 03:23:06;;;;;;;10.47;1.80;;;;;;;;;;4968684;28;20134;-70
2022/01/05 03:25:32;;;;;;;11.37;1.33;;;2.40;99.90;;;;;;4963208;28;20035;-70
2022/01/05 03:27:58;;;;;;;11.50;1.60;;;2.40;99.90;;;;;;4967674;28;20058;-70
2022/01/05 03:30:26;;;;;;;12.07;2.47;;;2.30;99.90;;;;;;4968102;28;20070;-70
2022/01/05 03:35:30;;;;;;;8.77;1.30;;;2.40;99.90;;;;;;4966625;28;20030;-70
2022/01/05 03:37:56;;;;;;;7.83;1.30;;;;;;;;;;4967735;28;20037;-70
2022/01/05 03:40:22;;;;;;;7.83;2.10;;;2.40;99.90;;;;;;4968389;28;20086;-71
2022/01/05 03:42:48;;;;;;;13.23;2.20;;;;;;;;;;4982313;28;20078;-70
2022/01/05 03:45:14;;;;;;;5.07;1.63;;;2.30;99.90;;;;;;4967923;28;20019;-70
2022/01/05 03:47:40;;;;;;;5.47;1.23;;;2.50;99.90;;;;;;4967957;28;20082;-70
2022/01/05 03:50:06;;;;;;;9.83;2.37;;;2.40;99.90;;;;;;4968971;28;20027;-70
2022/01/05 03:52:32;;;;;;;7.63;1.53;;;2.60;99.90;;;;;;4970199;28;20360;-70
2022/01/05 03:54:58;;;;;;;12.23;1.60;;;2.60;99.90;;;;;;4971976;28;20078;-70
2022/01/05 03:57:25;;;;;;;12.80;1.97;;;2.50;99.90;;;;;;4971062;28;20043;-70
2022/01/05 03:59:51;;;;;;;13.43;1.77;;;1.20;99.90;;;;;;4971997;28;20093;-70
2022/01/05 04:02:16;;;;;;;10.77;1.80;;;2.40;99.90;;;;;;4971932;28;20041;-70
2022/01/05 04:04:43;;;;;;;13.07;2.53;;;;;;;;;;4971390;28;20027;-70
2022/01/05 04:07:09;;;;;;;7.17;2.07;;;;;;;;;;4972183;28;20085;-70
2022/01/05 04:09:35;;;;;;;9.10;1.80;;;;;;;;;;4971476;28;20030;-70
2022/01/05 04:12:01;;;;;;;11.73;2.37;;;2.10;99.90;;;;;;4971287;28;20396;-71
2022/01/05 04:14:26;;;;;;;14.13;1.90;;;2.40;99.90;;;;;;4971281;28;20045;-70
2022/01/05 04:16:52;;;;;;;16.67;2.13;;;2.30;99.90;;;;;;4971464;28;20033;-70
2022/01/05 04:19:18;;;;;;;8.90;1.63;;;;;;;;;;4972015;28;20037;-70
2022/01/05 04:21:43;;;;;;;10.93;1.57;;;2.30;99.90;;;;;;4971101;28;20046;-70
2022/01/05 04:24:09;;;;;;;15.63;2.10;;;;;;;;;;4971716;28;20030;-70
2022/01/05 04:26:35;;;;;;;11.50;2.27;;;;;;;;;;4970827;28;20042;-70
2022/01/05 04:29:01;;;;;;;11.57;2.27;;;;;;;;;;4970897;28;20034;-70
2022/01/05 04:31:27;;;;;;;14.57;2.77;;;;;;;;;;4969718;28;20174;-70
2022/01/05 04:33:53;;;;;;;7.70;1.40;;;;;;;;;;4970969;28;20353;-70
2022/01/05 04:36:18;;;;;;;13.33;2.40;;;2.30;99.90;;;;;;4971542;28;20539;-70
2022/01/05 04:38:44;;;;;;;6.87;1.77;;;;;;;;;;4970884;28;20039;-70
2022/01/05 04:41:10;;;;;;;15.60;2.30;;;2.10;99.90;;;;;;4969456;28;20050;-70
2022/01/05 04:43:35;;;;;;;6.77;1.90;;;2.30;99.90;;;;;;4971144;28;20027;-70
2022/01/05 04:46:01;;;;;;;10.47;2.40;;;2.60;99.90;;;;;;4970981;28;20350;-70
2022/01/05 04:48:27;;;;;;;9.07;1.73;;;;;;;;;;4971196;28;20500;-70
2022/01/05 04:50:53;;;;;;;12.37;2.57;;;;;;;;;;4970950;28;20106;-70
2022/01/05 04:53:19;;;;;;;12.77;1.83;;;2.80;99.90;;;;;;4969731;28;20026;-70
2022/01/05 04:55:45;;;;;;;12.10;2.63;;;;;;;;;;4969476;28;20105;-70
2022/01/05 04:58:10;;;;;;;8.00;2.37;;;2.70;99.90;;;;;;4968667;28;20058;-70
2022/01/05 05:00:36;;;;;;;14.00;2.13;;;3.00;99.90;;;;;;4970397;28;20035;-70
2022/01/05 05:03:03;;;;;;;11.23;2.07;;;;;;;;;;4969678;28;20030;-70
2022/01/05 05:05:29;;;;;;;10.60;2.07;;;2.90;99.90;;;;;;4967804;28;20115;-70
2022/01/05 05:07:54;;;;;;;11.70;2.70;;;2.80;99.90;;;;;;4961963;28;20117;-70
2022/01/05 05:10:20;;;;;;;11.63;2.77;;;2.80;99.90;;;;;;4970080;28;20034;-70
2022/01/05 05:12:45;;;;;;;9.47;2.07;;;2.90;99.90;;;;;;4970454;28;20066;-70
2022/01/05 05:15:11;;;;;;;15.20;3.93;;;;;;;;;;4970591;28;20498;-70
2022/01/05 05:17:37;;;;;;;9.40;2.27;;;;;;;;;;4970272;28;20038;-71
2022/01/05 05:20:04;;;;;;;11.30;2.20;;;;;;;;;;4969497;28;20057;-70
2022/01/05 05:22:29;;;;;;;16.30;2.70;;;2.90;99.90;;;;;;4969659;28;20074;-70
2022/01/05 05:24:55;;;;;;;12.97;2.47;;;;;;;;;;4970105;28;20065;-71
2022/01/05 05:27:20;;;;;;;10.83;2.20;;;3.00;99.90;;;;;;4970495;28;20058;-70
2022/01/05 05:29:46;;;;;;;8.00;2.10;;;3.20;99.90;;;;;;4970428;28;20107;-71
2022/01/05 05:32:12;;;;;;;10.67;2.67;;;;;;;;;;4970204;28;20055;-70
2022/01/05 05:34:38;;;;;;;14.47;2.90;;;;;;;;;;4970316;28;20070;-70
2022/01/05 05:37:04;;;;;;;15.20;2.33;;;;;;;;;;4970084;28;20054;-70
2022/01/05 05:39:29;;;;;;;11.67;2.60;;;3.10;99.90;;;;;;4964798;28;20027;-70
2022/01/05 05:41:55;;;;;;;14.70;2.83;;;2.90;99.90;;;;;;4963888;28;20510;-70
2022/01/05 05:44:21;;;;;;;13.37;2.57;;;;;;;;;;4983118;28;20030;-70
2022/01/05 05:46:48;;;;;;;6.93;1.90;;;;;;;;;;4969621;28;20055;-70
2022/01/05 05:49:13;;;;;;;11.47;1.87;;;3.00;99.90;;;;;;4970329;28;20026;-70
2022/01/05 05:51:39;;;;;;;11.43;2.10;;;;;;;;;;4969508;28;20031;-70
2022/01/05 05:54:05;;;;;;;21.50;5.07;;;;;;;;;;4961623;28;20114;-71
2022/01/05 05:56:31;;;;;;;29.37;4.50;;;3.20;99.90;;;;;;4969402;28;20031;-70
2022/01/05 05:58:56;;;;;;;9.03;2.50;;;3.20;99.90;;;;;;4970015;28;20507;-70
2022/01/05 06:01:22;;;;;;;13.03;3.13;;;3.70;99.90;;;;;;4970130;28;20094;-70
2022/01/05 06:03:47;;;;;;;15.53;3.10;;;3.50;99.90;;;;;;4969023;28;20491;-70
2022/01/05 06:06:13;;;;;;;13.23;2.70;;;3.30;99.90;;;;;;4970061;28;20440;-70
2022/01/05 06:08:39;;;;;;;21.67;3.43;;;3.50;99.90;;;;;;4968832;28;20031;-70
2022/01/05 06:11:06;;;;;;;13.13;2.33;;;3.50;99.90;;;;;;4969736;28;20031;-70
2022/01/05 06:13:32;;;;;;;13.73;2.30;;;;;;;;;;4968857;28;20033;-70
2022/01/05 06:16:00;;;;;;;10.07;3.03;;;3.60;99.90;;;;;;4969768;28;20031;-70
2022/01/05 06:18:25;;;;;;;15.87;3.20;;;3.60;99.90;;;;;;4969282;28;20070;-70
2022/01/05 06:20:51;;;;;;;11.80;2.80;;;3.50;99.90;;;;;;4969111;28;20497;-70
2022/01/05 06:23:16;;;;;;;15.93;3.00;;;3.90;99.90;;;;;;4969177;28;20369;-70
2022/01/05 06:25:42;;;;;;;18.27;3.17;;;3.70;99.90;;;;;;4983785;28;20035;-70
2022/01/05 06:28:11;;;;;;;16.57;3.20;;;;;;;;;;4969728;28;20118;-70
2022/01/05 06:30:40;;;;;;;17.40;3.90;;;3.90;99.90;;;;;;4969069;28;20027;-70
2022/01/05 06:33:07;;;;;;;15.93;3.10;;;3.90;99.90;;;;;;4969198;28;20030;-70
2022/01/05 06:35:33;;;;;;;15.20;2.53;;;3.90;99.90;;;;;;4969200;28;20097;-70
2022/01/05 06:37:59;;;;;;;20.07;2.80;;;4.20;99.90;;;;;;4966829;28;20659;-70
2022/01/05 06:40:24;;;;;;;17.30;3.80;;;4.00;99.90;;;;;;4984036;28;20023;-71
2022/01/05 06:42:50;;;;;;;14.77;2.23;;;4.10;99.90;;;;;;4969028;28;20420;-70
2022/01/05 06:45:16;;;;;;;13.73;2.20;;;4.20;99.90;;;;;;4984194;28;20026;-70
2022/01/05 06:47:42;;;;;;;8.97;1.93;;;;;;;;;;4968821;28;20031;-71
2022/01/05 06:50:09;;;;;;;14.53;3.37;;;4.10;99.90;;;;;;4968869;28;20523;-70
2022/01/05 06:52:35;;;;;;;15.77;3.10;;;4.10;99.90;;;;;;4968569;28;20449;-70
2022/01/05 06:55:00;;;;;;;14.30;3.97;;;4.20;99.90;;;;;;4968983;28;20101;-70
2022/01/05 06:57:26;;;;;;;16.47;2.47;;;4.30;99.90;;;;;;4968764;28;20086;-70
2022/01/05 06:59:52;;;;;;;13.77;2.17;;;;;;;;;;4968602;28;20027;-70
2022/01/05 07:02:18;;;;;;;21.50;3.80;;;;;;;;;;4968762;28;20035;-70
2022/01/05 07:04:44;;;;;;;14.73;3.60;;;;;;;;;;4968822;28;20122;-71
2022/01/05 07:07:09;;;;;;;14.43;2.47;;;4.40;99.90;;;;;;4968288;28;20310;-70
2022/01/05 07:09:35;;;;;;;21.17;2.77;;;4.40;99.90;;;;;;4968631;28;20449;-70
2022/01/05 07:12:01;;;;;;;10.63;2.60;;;4.40;99.90;;;;;;4983364;28;20493;-70
2022/01/05 07:14:26;;;;;;;17.63;3.57;;;4.50;99.90;;;;;;4969076;28;20050;-71
2022/01/05 07:16:52;;;;;;;17.93;2.60;;;4.40;99.90;;;;;;4968764;28;20396;-70
2022/01/05 07:19:19;;;;;;;20.40;4.60;;;;;;;;;;4968529;28;20118;-70
2022/01/05 07:21:46;;;;;;;16.67;2.47;;;4.40;99.90;;;;;;4968310;28;20133;-71
2022/01/05 07:24:14;;;;;;;15.07;2.03;;;4.40;99.90;;;;;;4968586;28;20464;-70
2022/01/05 07:26:40;;;;;;;10.77;2.97;;;4.70;99.90;;;;;;4971513;28;20030;-71
2022/01/05 07:29:06;;;;;;;10.53;2.40;;;;;;;;;;4972499;28;20491;-70
2022/01/05 07:31:31;;;;;;;16.90;2.83;;;4.60;99.90;;;;;;4970831;28;20182;-70
2022/01/05 07:33:57;;;;;;;15.40;3.50;;;4.40;99.90;;;;;;4970808;28;21083;-70
2022/01/05 07:36:23;;;;;;;18.37;3.13;;;;;;;;;;4971515;28;20041;-70
2022/01/05 07:38:48;;;;;;;10.53;2.83;;;4.40;99.90;;;;;;4972729;28;20031;-70
2022/01/05 07:41:14;;;;;;;15.00;2.57;;;4.60;99.90;;;;;;4972041;28;20395;-70
2022/01/05 07:43:40;;;;;;;15.73;3.57;;;;;;;;;;4972309;28;20073;-70
2022/01/05 07:46:05;;;;;;;7.97;2.47;;;;;;;;;;4971926;28;20023;-70
2022/01/05 07:48:32;;;;;;;18.03;3.20;;;;;;;;;;4970014;28;20023;-70
2022/01/05 07:50:58;;;;;;;19.63;3.43;;;;;;;;;;4971501;28;20043;-70
2022/01/05 07:53:24;;;;;;;16.40;2.80;;;;;;;;;;4969840;28;20057;-70
2022/01/05 07:55:49;;;;;;;19.90;3.07;;;4.90;99.90;;;;;;4972419;28;20027;-70
2022/01/05 07:58:15;;;;;;;15.27;2.20;;;4.70;99.90;;;;;;4971717;28;20026;-70
2022/01/05 08:00:41;;;;;;;21.77;4.03;;;;;;;;;;4967141;28;20440;-70
2022/01/05 08:03:07;;;;;;;11.40;2.83;;;;;;;;;;4967917;28;20039;-70
2022/01/05 08:05:32;;;;;;;12.03;2.90;;;4.70;99.90;;;;;;4971568;28;20488;-70
2022/01/05 08:07:58;;;;;;;15.10;3.20;;;;;;;;;;4971945;28;20031;-70
2022/01/05 08:10:24;;;;;;;19.97;2.93;;;;;;;;;;4971130;28;20090;-70
2022/01/05 08:12:50;;;;;;;15.77;3.03;;;4.80;99.90;;;;;;4971922;28;20030;-72
2022/01/05 08:15:16;;;;;;;17.10;2.53;;;4.80;99.90;;;;;;4970320;28;20373;-70
2022/01/05 08:17:43;;;;;;;18.57;3.40;;;5.00;99.90;;;;;;4969621;28;20027;-70
2022/01/05 08:20:12;;;;;;;11.53;2.67;;;4.70;99.90;;;;;;4986811;28;20039;-70
2022/01/05 08:22:42;;;;;;;20.70;4.67;;;4.70;99.90;;;;;;4971448;28;20540;-70
2022/01/05 08:25:09;;;;;;;18.37;3.13;;;4.90;99.90;;;;;;4970290;28;20114;-69
2022/01/05 08:27:35;;;;;;;18.70;4.60;;;;;;;;;;4963876;28;20027;-69
2022/01/05 08:30:04;;;;;;;13.30;2.93;;;4.60;99.90;;;;;;4965646;28;20117;-69
2022/01/05 08:32:31;;;;;;;17.33;4.27;;;4.60;99.90;;;;;;4951173;28;20051;-69
2022/01/05 08:34:57;;;;;;;17.23;4.50;;;;;;;;;;4951591;28;20131;-69
2022/01/05 08:37:23;;;;;;;14.57;2.97;;;;;;;;;;4950443;28;20106;-69
2022/01/05 08:39:50;;;;;;;12.63;3.17;;;4.60;99.90;;;;;;4949867;28;20129;-69
2022/01/05 08:42:17;;;;;;;31.10;4.83;;;;;;;;;;4951050;28;20044;-69
2022/01/05 08:44:42;;;;;;;19.23;3.87;;;4.70;99.90;;;;;;4967997;28;20050;-68
2022/01/05 08:47:08;;;;;;;21.00;4.17;;;;;;;;;;4970124;28;20415;-69
2022/01/05 08:49:34;;;;;;;15.10;3.97;;;4.60;99.90;;;;;;4970125;28;20109;-68
2022/01/05 08:52:00;;;;;;;15.27;2.93;;;4.80;99.90;;;;;;4970649;28;20357;-68
2022/01/05 08:54:26;;;;;;;14.23;2.90;;;4.60;99.90;;;;;;4969300;28;20030;-68
2022/01/05 08:56:54;;;;;;;20.03;3.57;;;4.20;99.90;;;;;;4967983;28;20027;-71
2022/01/05 08:59:20;;;;;;;24.70;3.87;;;;;;;;;;4969786;28;20034;-69
2022/01/05 09:01:46;;;;;;;19.53;4.33;;;;;;;;;;4970786;28;20027;-69
2022/01/05 09:04:12;;;;;;;29.37;4.87;;;;;;;;;;4970373;28;20480;-70
2022/01/05 09:06:38;;;;;;;18.47;3.93;;;4.80;99.90;;;;;;4970507;28;20038;-68
2022/01/05 09:09:04;;;;;;;14.63;4.47;;;;;;;;;;4971513;28;20093;-68
2022/01/05 09:11:30;;;;;;;18.60;3.10;;;;;;;;;;4970272;28;20037;-69
2022/01/05 09:13:56;;;;;;;15.23;2.97;;;;;;;;;;4970472;28;20101;-69
2022/01/05 09:16:21;;;;;;;16.97;3.03;;;4.40;99.90;;;;;;4969666;28;20031;-68
2022/01/05 09:18:47;;;;;;;15.33;3.57;;;;;;;;;;4970597;28;20089;-69
2022/01/05 09:21:13;;;;;;;17.20;3.77;;;;;;;;;;4970567;28;20105;-68
2022/01/05 09:23:39;;;;;;;22.67;4.37;;;4.90;99.90;;;;;;4970695;28;20105;-68
2022/01/05 09:26:05;;;;;;;18.27;3.37;;;;;;;;;;4971010;28;20472;-69
2022/01/05 09:28:31;;;;;;;22.50;3.23;;;4.50;99.90;;;;;;4968622;28;20085;-69
2022/01/05 09:30:56;;;;;;;14.23;3.50;;;4.60;99.90;;;;;;4970308;28;20138;-69
2022/01/05 09:33:23;;;;;;;13.60;3.27;;;4.50;99.90;;;;;;4970465;28;20023;-68
2022/01/05 09:35:50;;;;;;;19.13;4.23;;;4.50;99.90;;;;;;4971008;28;20023;-69
2022/01/05 09:38:37;;;;;;;13.53;3.30;;;4.60;99.90;;;;;;4970433;28;20583;-69
2022/01/05 09:43:53;;;;;;;16.63;4.13;;;4.50;99.90;;;;;;4970527;28;20038;-69
2022/01/05 09:46:44;;;;;;;16.37;3.47;;;4.60;99.90;;;;;;4969789;28;20464;-68
2022/01/05 09:49:20;;;;;;;19.93;3.70;;;4.60;99.90;;;;;;4970187;28;20046;-68
2022/01/05 09:51:50;;;;;;;15.87;3.17;;;4.70;99.90;;;;;;4970522;28;20110;-68
2022/01/05 09:54:16;;;;;;;17.97;3.47;;;;;;;;;;4984026;28;20110;-70
2022/01/05 09:56:43;;;;;;;14.63;2.77;;;4.70;99.90;;;;;;4968431;28;20455;-69
2022/01/05 09:59:09;;;;;;;16.07;2.50;;;4.80;99.90;;;;;;4969685;28;20070;-69
2022/01/05 10:01:36;;;;;;;15.13;3.67;;;5.80;99.90;;;;;;4969150;28;20038;-69
2022/01/05 10:04:02;;;;;;;23.00;3.43;;;4.50;99.90;;;;;;4970131;28;20409;-68
2022/01/05 10:06:28;;;;;;;13.23;2.93;;;4.60;99.90;;;;;;4968533;28;20554;-68
2022/01/05 10:08:54;;;;;;;20.63;4.40;;;;;;;;;;4969793;28;20030;-70
2022/01/05 10:11:22;;;;;;;23.57;5.20;;;;;;;;;;4969347;28;20035;-68
2022/01/05 10:13:48;;;;;;;21.20;3.53;;;4.70;99.90;;;;;;4967437;28;20049;-68
2022/01/05 10:16:14;;;;;;;25.37;3.80;;;;;;;;;;4969296;28;20030;-68
2022/01/05 10:18:42;;;;;;;14.33;3.40;;;4.70;99.90;;;;;;4968914;28;20101;-68
2022/01/05 10:21:08;;;;;;;20.77;4.60;;;4.70;99.90;;;;;;4969416;28;20443;-68
2022/01/05 10:23:47;;;;;;;20.37;4.40;;;4.90;99.90;;;;;;4968930;28;20044;-68
2022/01/05 10:26:30;;;;;;;19.27;4.33;;;4.80;99.90;;;;;;4966041;28;20428;-69
2022/01/05 10:29:01;;;;;;;19.73;4.03;;;5.20;99.90;;;;;;4966947;28;20035;-69
2022/01/05 10:31:54;;;;;;;35.97;4.87;;;5.00;99.90;;;;;;4968478;28;20062;-68
2022/01/05 10:34:28;;;;;;;27.43;3.90;;;4.90;99.90;;;;;;4969161;28;20161;-68
2022/01/05 10:36:55;;;;;;;18.07;3.40;;;5.00;99.90;;;;;;4969655;28;20027;-68
2022/01/05 10:39:31;;;;;;;25.40;6.27;;;5.10;99.90;;;;;;4968438;28;20030;-68
2022/01/05 10:42:06;;;;;;;22.40;3.77;;;5.10;99.90;;;;;;4968193;28;20035;-68
2022/01/05 10:44:32;;;;;;;22.57;4.33;;;5.10;99.90;;;;;;4966862;28;20051;-68
2022/01/05 10:47:00;;;;;;;19.63;4.53;;;5.20;99.90;;;;;;4966768;28;20474;-68
2022/01/05 10:49:31;;;;;;;29.93;6.53;;;5.60;99.90;;;;;;4967755;28;20035;-68
2022/01/05 10:52:17;;;;;;;23.50;5.10;;;5.40;99.90;;;;;;4967248;28;20029;-69
2022/01/05 10:54:42;;;;;;;24.17;4.63;;;5.50;99.90;;;;;;4967631;28;20031;-68
2022/01/05 10:57:11;;;;;;;24.63;5.47;;;5.40;99.90;;;;;;4967429;28;20105;-68
2022/01/05 10:59:39;;;;;;;23.97;4.80;;;5.50;99.90;;;;;;4967316;28;20077;-68
2022/01/05 11:02:25;;;;;;;27.10;4.13;;;5.60;99.90;;;;;;4968704;28;20097;-68
2022/01/05 11:05:13;;;;;;;20.63;5.03;;;5.50;99.90;;;;;;4968747;28;20027;-68
2022/01/05 11:07:42;;;;;;;19.13;3.60;;;5.60;99.90;;;;;;4966968;28;20089;-68
2022/01/05 11:10:11;;;;;;;32.47;6.83;;;5.20;99.90;;;;;;4967302;28;20054;-68
2022/01/05 11:12:40;;;;;;;25.17;5.93;;;5.60;99.90;;;;;;4966830;28;20082;-68
2022/01/05 11:15:30;;;;;;;25.13;4.27;;;5.50;99.90;;;;;;4968379;28;20023;-68
2022/01/05 11:18:11;;;;;;;27.13;3.97;;;5.50;99.90;;;;;;4967124;28;20027;-68
2022/01/05 11:20:57;;;;;;;35.27;4.90;;;5.50;99.90;;;;;;4967379;28;20026;-68
2022/01/05 11:23:26;;;;;;;17.57;3.13;;;5.30;99.90;;;;;;4967382;28;20109;-68
2022/01/05 11:25:54;;;;;;;34.80;5.03;;;5.30;99.90;;;;;;4967799;28;20023;-67
2022/01/05 11:28:22;;;;;;;33.83;5.77;;;5.40;99.90;;;;;;4967951;28;20035;-67
2022/01/05 11:30:50;;;;;;;19.20;3.57;;;5.50;99.90;;;;;;4968770;28;20098;-68
2022/01/05 11:33:17;;;;;;;23.40;4.60;;;5.30;99.90;;;;;;4967346;28;20159;-67
2022/01/05 11:35:43;;;;;;;15.27;3.50;;;;;;;;;;4967136;28;20034;-68
2022/01/05 11:38:10;;;;;;;26.07;4.10;;;5.30;99.90;;;;;;4969351;28;20054;-68
2022/01/05 11:40:39;;;;;;;20.70;5.13;;;5.40;99.90;;;;;;4968432;28;20117;-68
2022/01/05 11:43:12;;;;;;;23.07;4.87;;;5.50;99.90;;;;;;4969340;28;20113;-68
2022/01/05 11:45:45;;;;;;;16.30;4.33;;;5.30;99.90;;;;;;4968991;28;20034;-68
2022/01/05 11:48:28;;;;;;;18.30;3.40;;;5.50;99.90;;;;;;4968292;28;20476;-68
2022/01/05 11:50:57;;;;;;;22.33;3.30;;;5.40;99.90;;;;;;4966079;28;20089;-68
2022/01/05 11:53:34;;;;;;;25.00;3.83;;;5.60;99.90;;;;;;4966822;28;20023;-69
2022/01/05 11:56:04;;;;;;;25.10;3.50;;;;;;;;;;4968305;28;20033;-69
2022/01/05 11:58:31;;;;;;;14.40;2.50;;;5.50;99.90;;;;;;4969128;28;20027;-69
2022/01/05 12:01:12;;;;;;;20.70;3.37;;;5.50;99.90;;;;;;4968954;28;20480;-69
2022/01/05 12:03:59;;;;;;;18.40;2.97;;;5.50;99.90;;;;;;4968476;28;20432;-68
2022/01/05 12:06:26;;;;;;;15.93;3.17;;;5.50;99.90;;;;;;4968899;28;20014;-70
2022/01/05 12:08:54;;;;;;;20.03;2.60;;;5.60;99.90;;;;;;4967464;28;20022;-67
2022/01/05 12:11:28;;;;;;;19.33;3.57;;;5.70;99.90;;;;;;4969628;28;20023;-68
2022/01/05 12:13:54;;;;;;;20.25;5.53;;;;;;;;;;4972680;28;20387;-68
2022/01/05 12:16:20;;;;;;;23.83;3.90;;;5.70;99.90;;;;;;4971995;28;20469;-68
2022/01/05 12:19:03;;;;;;;16.43;4.53;;;5.80;99.90;;;;;;4971039;28;20034;-68
2022/01/05 12:21:45;;;;;;;17.30;3.07;;;5.80;99.90;;;;;;4970518;28;20443;-68
2022/01/05 12:24:11;;;;;;;17.77;3.43;;;5.80;99.90;;;;;;4970596;28;20027;-68
2022/01/05 12:26:37;;;;;;;32.93;3.70;;;5.80;99.90;;;;;;4971495;28;20050;-68
2022/01/05 12:29:03;;;;;;;19.83;3.90;;;5.90;99.90;;;;;;4971863;28;20443;-68
2022/01/05 12:31:47;;;;;;;18.50;3.47;;;5.70;99.90;;;;;;4971044;28;20137;-70
2022/01/05 12:34:39;;;;;;;32.55;3.92;;;5.80;99.90;;;;;;4972244;28;20034;-69
2022/01/05 12:38:04;;;;;;;18.17;4.43;;;5.90;99.90;;;;;;4963003;28;20042;-69
2022/01/05 12:40:39;;;;;;;19.50;4.47;;;5.90;99.90;;;;;;4930411;29;20046;-69
2022/01/05 12:43:13;;;;;;;21.70;3.30;;;5.80;99.90;;;;;;4931393;29;20598;-70
2022/01/05 12:45:44;;;;;;;;;;;5.70;99.90;;;;;;4930881;29;20028;-69
2022/01/05 12:48:43;;;;;;;21.67;4.10;;;6.00;99.90;;;;;;4931181;29;19922;-69
2022/01/05 12:51:14;;;;;;;18.30;4.37;;;6.00;99.90;;;;;;4929158;29;20035;-69
2022/01/05 12:53:54;;;;;;;19.20;3.73;;;6.10;99.90;;;;;;4929801;29;20468;-69
2022/01/05 12:56:20;;;;;;;21.93;3.97;;;;;;;;;;4930882;29;20110;-69
2022/01/05 12:58:48;;;;;;;24.67;3.00;;;6.10;99.90;;;;;;4930254;29;20555;-69
2022/01/05 13:01:15;;;;;;;22.33;3.33;;;5.90;99.90;;;;;;4931090;29;20043;-69
2022/01/05 13:03:41;;;;;;;20.60;4.10;;;;;;;;;;4930213;29;20063;-69
2022/01/05 13:06:36;;;;;;;26.37;4.63;;;6.00;99.90;;;;;;4930775;29;20047;-67
2022/01/05 13:09:08;;;;;;;27.90;5.07;;;6.00;99.90;;;;;;4914389;29;20054;-67
2022/01/05 13:11:38;;;;;;;18.70;3.43;;;6.20;99.90;;;;;;4930541;29;20036;-68
2022/01/05 13:14:22;;;;;;;29.53;3.70;;;6.10;99.90;;;;;;4944971;28;20050;-68
2022/01/05 13:16:49;;;;;;;28.23;4.87;;;6.10;99.90;;;;;;4971153;28;20542;-68
2022/01/05 13:19:27;;;;;;;20.27;3.03;;;6.40;99.90;;;;;;4971655;28;20464;-68
2022/01/05 13:21:53;;;;;;;17.67;3.53;;;;;;;;;;4971191;28;20030;-68
2022/01/05 13:24:20;;;;;;;26.67;4.67;;;6.30;99.90;;;;;;4969898;28;20552;-68
2022/01/05 13:27:06;;;;;;;21.37;4.20;;;6.40;99.90;;;;;;4970710;28;20058;-69